createdAt,value
2018-04-06T00:00:19.047Z,5.20
2018-04-06T00:02:47.303Z,5.28
2018-04-06T00:05:17.264Z,5.11
2018-04-06T00:07:45.626Z,5.25
2018-04-06T00:10:18.467Z,5.26
2018-04-06T00:12:50.850Z,5.12
2018-04-06T00:15:19.163Z,5.28
2018-04-06T00:17:47.460Z,5.30
2018-04-06T00:20:15.711Z,5.23
2018-04-06T00:22:43.983Z,5.37
2018-04-06T00:25:12.366Z,5.35
2018-04-06T00:27:40.637Z,5.04
2018-04-06T00:30:08.922Z,4.98
2018-04-06T00:32:37.235Z,5.02
2018-04-06T00:35:05.995Z,4.90
2018-04-06T00:37:34.307Z,4.84
2018-04-06T00:40:02.756Z,5.04
2018-04-06T00:42:31.230Z,5.01
2018-04-06T00:44:59.485Z,5.06
2018-04-06T00:47:27.983Z,5.23
2018-04-06T00:49:56.456Z,5.02
2018-04-06T00:52:24.779Z,4.73
2018-04-06T00:54:53.166Z,4.59
2018-04-06T00:57:21.714Z,4.74
2018-04-06T00:59:50.043Z,4.75
2018-04-06T01:02:18.813Z,4.73
2018-04-06T01:04:47.126Z,4.66
2018-04-06T01:07:15.394Z,4.65
2018-04-06T01:09:43.667Z,4.70
2018-04-06T01:12:11.938Z,4.90
2018-04-06T01:14:40.349Z,4.85
2018-04-06T01:17:08.597Z,4.74
2018-04-06T01:19:36.890Z,4.88
2018-04-06T01:22:05.264Z,4.84
2018-04-06T01:24:33.541Z,4.85
2018-04-06T01:27:01.800Z,4.72
2018-04-06T01:29:30.845Z,4.85
2018-04-06T01:31:59.333Z,5.03
2018-04-06T01:34:27.601Z,5.03
2018-04-06T01:36:56.654Z,5.51
2018-04-06T01:39:24.970Z,5.78
2018-04-06T01:41:54.015Z,5.54
2018-04-06T01:44:22.296Z,5.77
2018-04-06T01:46:51.122Z,5.90
2018-04-06T01:49:19.556Z,5.95
2018-04-06T01:51:47.845Z,6.20
2018-04-06T01:54:16.134Z,6.12
2018-04-06T01:56:44.416Z,6.03
2018-04-06T01:59:12.655Z,5.81
2018-04-06T02:01:40.924Z,6.00
2018-04-06T02:04:09.205Z,5.93
2018-04-06T02:06:37.466Z,6.18
2018-04-06T02:09:06.056Z,5.97
2018-04-06T02:11:34.326Z,6.35
2018-04-06T02:14:02.598Z,6.24
2018-04-06T02:16:31.039Z,6.18
2018-04-06T02:18:59.313Z,6.39
2018-04-06T02:21:27.756Z,6.40
2018-04-06T02:23:56.052Z,6.42
2018-04-06T02:26:24.318Z,6.24
2018-04-06T02:28:52.577Z,5.75
2018-04-06T02:31:20.842Z,5.73
2018-04-06T02:33:49.119Z,5.60
2018-04-06T02:36:17.393Z,5.57
2018-04-06T02:38:46.671Z,5.29
2018-04-06T02:41:14.933Z,5.21
2018-04-06T02:43:43.410Z,5.25
2018-04-06T02:46:12.993Z,5.20
2018-04-06T02:48:41.351Z,5.30
2018-04-06T02:51:09.638Z,5.21
2018-04-06T02:53:37.899Z,5.35
2018-04-06T02:56:06.162Z,5.11
2018-04-06T02:58:34.475Z,5.16
2018-04-06T03:01:03.527Z,4.98
2018-04-06T03:03:31.790Z,4.97
2018-04-06T03:06:00.217Z,4.98
2018-04-06T03:08:28.495Z,5.16
2018-04-06T03:10:57.532Z,5.19
2018-04-06T03:13:25.868Z,4.96
2018-04-06T03:15:54.906Z,5.14
2018-04-06T03:18:23.192Z,5.20
2018-04-06T03:20:51.449Z,5.50
2018-04-06T03:23:19.733Z,5.73
2018-04-06T03:25:48.026Z,5.84
2018-04-06T03:28:16.267Z,5.98
2018-04-06T03:30:45.304Z,5.94
2018-04-06T03:33:13.566Z,5.95
2018-04-06T03:35:42.047Z,5.98
2018-04-06T03:38:10.324Z,6.12
2018-04-06T03:40:38.592Z,6.12
2018-04-06T03:43:06.863Z,6.12
2018-04-06T03:45:35.131Z,6.20
2018-04-06T03:48:03.401Z,6.20
2018-04-06T03:50:31.689Z,6.27
2018-04-06T03:53:00.057Z,6.19
2018-04-06T03:55:28.304Z,6.25
2018-04-06T03:57:56.583Z,6.20
2018-04-06T04:00:24.843Z,6.27
2018-04-06T04:02:53.881Z,6.19
2018-04-06T04:05:22.347Z,6.20
2018-04-06T04:07:50.623Z,6.21
2018-04-06T04:10:18.993Z,6.17
2018-04-06T04:12:47.434Z,6.19
2018-04-06T04:15:16.491Z,6.17
2018-04-06T04:17:44.805Z,6.21
2018-04-06T04:20:13.086Z,6.14
2018-04-06T04:22:42.130Z,6.11
2018-04-06T04:25:10.379Z,6.09
2018-04-06T04:27:38.622Z,6.08
2018-04-06T04:30:07.673Z,6.08
2018-04-06T04:32:35.958Z,6.05
2018-04-06T04:35:04.248Z,6.07
2018-04-06T04:37:32.571Z,6.01
2018-04-06T04:40:00.886Z,6.06
2018-04-06T04:42:29.807Z,5.98
2018-04-06T04:44:58.846Z,5.93
2018-04-06T04:47:27.147Z,5.96
2018-04-06T04:49:55.839Z,5.96
2018-04-06T04:52:24.436Z,6.00
2018-04-06T04:54:54.268Z,6.02
2018-04-06T04:57:22.727Z,5.91
2018-04-06T04:59:51.267Z,5.92
2018-04-06T05:02:19.686Z,6.06
2018-04-06T05:04:48.170Z,6.01
2018-04-06T05:07:17.220Z,6.07
2018-04-06T05:09:45.522Z,6.06
2018-04-06T05:12:13.834Z,6.01
2018-04-06T05:14:42.873Z,6.04
2018-04-06T05:17:11.145Z,6.04
2018-04-06T05:19:39.420Z,6.10
2018-04-06T05:22:07.698Z,6.09
2018-04-06T05:24:35.995Z,6.04
2018-04-06T05:27:04.308Z,6.14
2018-04-06T05:29:32.702Z,6.19
2018-04-06T05:32:01.196Z,6.27
2018-04-06T05:34:29.460Z,6.22
2018-04-06T05:36:57.735Z,6.22
2018-04-06T05:39:26.022Z,6.22
2018-04-06T05:41:56.161Z,6.28
2018-04-06T05:44:24.416Z,6.35
2018-04-06T05:46:52.797Z,6.29
2018-04-06T05:49:21.139Z,6.38
2018-04-06T05:51:49.564Z,6.32
2018-04-06T05:54:17.941Z,6.32
2018-04-06T05:56:46.218Z,6.41
2018-04-06T05:59:14.536Z,6.41
2018-04-06T06:01:43.685Z,6.39
2018-04-06T06:04:12.079Z,6.35
2018-04-06T06:06:40.344Z,6.35
2018-04-06T06:09:08.627Z,6.36
2018-04-06T06:11:36.893Z,6.34
2018-04-06T06:14:05.202Z,6.33
2018-04-06T06:16:34.268Z,6.47
2018-04-06T06:19:03.008Z,6.57
2018-04-06T06:21:31.375Z,6.63
2018-04-06T06:24:00.400Z,6.61
2018-04-06T06:26:28.705Z,6.65
2018-04-06T06:28:58.434Z,6.80
2018-04-06T06:31:27.579Z,6.87
2018-04-06T06:33:55.966Z,6.94
2018-04-06T06:36:25.026Z,6.97
2018-04-06T06:38:54.542Z,7.12
2018-04-06T06:41:22.777Z,7.02
2018-04-06T06:43:51.060Z,7.03
2018-04-06T06:46:20.079Z,7.11
2018-04-06T06:48:48.548Z,7.20
2018-04-06T06:51:17.578Z,7.35
2018-04-06T06:53:46.770Z,7.31
2018-04-06T06:56:15.161Z,7.43
2018-04-06T06:58:43.792Z,7.39
2018-04-06T07:01:12.078Z,7.40
2018-04-06T07:03:40.340Z,7.47
2018-04-06T07:06:08.674Z,7.56
2018-04-06T07:08:36.932Z,7.56
2018-04-06T07:11:05.718Z,7.51
2018-04-06T07:13:34.040Z,7.75
2018-04-06T07:16:03.074Z,7.52
2018-04-06T07:18:31.470Z,7.63
2018-04-06T07:20:59.758Z,7.69
2018-04-06T07:23:28.064Z,7.74
2018-04-06T07:25:56.300Z,7.83
2018-04-06T07:28:24.838Z,7.94
2018-04-06T07:30:53.171Z,7.92
2018-04-06T07:33:21.620Z,7.70
2018-04-06T07:35:50.045Z,8.11
2018-04-06T07:38:19.090Z,8.23
2018-04-06T07:40:47.568Z,8.33
2018-04-06T07:43:15.827Z,8.50
2018-04-06T07:45:44.115Z,8.32
2018-04-06T07:48:12.378Z,8.41
2018-04-06T07:50:40.974Z,8.57
2018-04-06T07:53:09.249Z,8.65
2018-04-06T07:55:37.820Z,8.71
2018-04-06T07:58:06.076Z,8.59
2018-04-06T08:00:34.350Z,8.50
2018-04-06T08:03:03.369Z,8.40
2018-04-06T08:05:31.632Z,8.32
2018-04-06T08:07:59.928Z,8.50
2018-04-06T08:10:28.269Z,8.47
2018-04-06T08:12:57.358Z,8.48
2018-04-06T08:15:26.407Z,8.58
2018-04-06T08:17:54.819Z,8.70
2018-04-06T08:20:23.139Z,8.72
2018-04-06T08:22:51.530Z,8.89
2018-04-06T08:25:19.793Z,9.00
2018-04-06T08:27:48.076Z,9.08
2018-04-06T08:30:16.520Z,9.26
2018-04-06T08:32:45.707Z,9.46
2018-04-06T08:35:13.967Z,9.41
2018-04-06T08:37:42.258Z,9.31
2018-04-06T08:40:10.538Z,9.52
2018-04-06T08:42:39.679Z,9.85
2018-04-06T08:45:08.213Z,9.86
2018-04-06T08:47:36.594Z,9.82
2018-04-06T08:50:04.876Z,10.14
2018-04-06T08:52:33.266Z,10.45
2018-04-06T08:55:01.548Z,10.79
2018-04-06T08:57:30.006Z,11.15
2018-04-06T08:59:59.052Z,11.24
2018-04-06T09:02:27.306Z,11.12
2018-04-06T09:04:55.639Z,10.84
2018-04-06T09:07:24.661Z,11.21
2018-04-06T09:09:52.956Z,11.48
2018-04-06T09:12:21.310Z,11.64
2018-04-06T09:14:49.599Z,11.79
2018-04-06T09:17:17.894Z,12.16
2018-04-06T09:19:46.428Z,13.06
2018-04-06T09:22:14.726Z,14.34
2018-04-06T09:24:43.047Z,14.40
2018-04-06T09:27:11.336Z,14.76
2018-04-06T09:29:40.455Z,15.69
2018-04-06T09:32:08.980Z,16.49
2018-04-06T09:34:37.244Z,17.68
2018-04-06T09:37:05.564Z,17.50
2018-04-06T09:39:34.597Z,17.66
2018-04-06T09:42:02.907Z,18.15
2018-04-06T09:44:31.166Z,17.63
2018-04-06T09:46:59.560Z,18.00
2018-04-06T09:49:27.865Z,17.21
2018-04-06T09:51:57.319Z,16.87
2018-04-06T09:54:25.684Z,18.41
2018-04-06T09:56:54.090Z,19.15
2018-04-06T09:59:22.390Z,18.58
2018-04-06T10:01:51.457Z,19.28
2018-04-06T10:04:21.238Z,18.67
2018-04-06T10:06:49.491Z,19.17
2018-04-06T10:09:17.773Z,18.56
2018-04-06T10:11:51.191Z,18.57
2018-04-06T10:14:19.503Z,19.23
2018-04-06T10:16:47.788Z,19.55
2018-04-06T10:19:16.481Z,19.92
2018-04-06T10:21:45.528Z,18.99
2018-04-06T10:24:14.591Z,19.00
2018-04-06T10:26:43.187Z,19.53
2018-04-06T10:29:11.465Z,19.82
2018-04-06T10:31:39.745Z,19.41
2018-04-06T10:34:08.033Z,20.70
2018-04-06T10:36:36.355Z,20.31
2018-04-06T10:39:06.366Z,18.39
2018-04-06T10:41:35.574Z,18.07
2018-04-06T10:44:04.047Z,19.78
2018-04-06T10:46:32.401Z,17.56
2018-04-06T10:49:01.490Z,18.25
2018-04-06T10:51:29.730Z,19.46
2018-04-06T10:53:58.044Z,17.89
2018-04-06T10:56:27.084Z,20.25
2018-04-06T10:58:55.395Z,19.71
2018-04-06T11:01:23.698Z,20.40
2018-04-06T11:03:53.158Z,21.33
2018-04-06T11:06:21.464Z,21.52
2018-04-06T11:08:49.719Z,21.71
2018-04-06T11:11:18.283Z,20.75
2018-04-06T11:13:46.610Z,21.64
2018-04-06T11:16:14.934Z,20.89
2018-04-06T11:18:43.288Z,20.31
2018-04-06T11:21:11.604Z,20.21
2018-04-06T11:23:39.873Z,20.32
2018-04-06T11:26:08.451Z,20.89
2018-04-06T11:28:36.709Z,20.81
2018-04-06T11:31:05.050Z,21.57
2018-04-06T11:33:34.123Z,22.69
2018-04-06T11:36:02.556Z,22.23
2018-04-06T11:38:30.823Z,21.08
2018-04-06T11:40:59.108Z,20.56
2018-04-06T11:43:27.602Z,20.85
2018-04-06T11:45:55.904Z,20.64
2018-04-06T11:48:24.215Z,20.62
2018-04-06T11:50:53.301Z,21.13
2018-04-06T11:53:23.311Z,22.15
2018-04-06T11:55:51.600Z,21.32
2018-04-06T11:58:20.645Z,22.16
2018-04-06T12:00:48.933Z,21.72
2018-04-06T12:03:17.209Z,21.65
2018-04-06T12:05:45.484Z,21.89
2018-04-06T12:08:13.754Z,22.32
2018-04-06T12:10:42.856Z,22.11
2018-04-06T12:13:11.117Z,21.81
2018-04-06T12:15:39.409Z,22.01
2018-04-06T12:18:07.740Z,21.83
2018-04-06T12:20:36.211Z,22.25
2018-04-06T12:23:04.529Z,21.90
2018-04-06T12:25:32.809Z,22.37
2018-04-06T12:28:01.264Z,21.40
2018-04-06T12:30:29.710Z,20.99
2018-04-06T12:32:58.117Z,22.51
2018-04-06T12:35:26.461Z,22.54
2018-04-06T12:37:55.928Z,22.33
2018-04-06T12:40:24.250Z,20.12
2018-04-06T12:42:52.687Z,19.63
2018-04-06T12:45:21.008Z,18.17
2018-04-06T12:47:49.359Z,17.66
2018-04-06T12:50:17.639Z,17.25
2018-04-06T12:52:46.722Z,17.56
2018-04-06T12:55:15.778Z,16.95
2018-04-06T12:57:44.161Z,16.79
2018-04-06T13:00:12.674Z,16.50
2018-04-06T13:02:41.744Z,16.51
2018-04-06T13:05:10.032Z,16.32
2018-04-06T13:07:38.366Z,16.66
2018-04-06T13:10:06.676Z,16.83
2018-04-06T13:12:34.975Z,16.91
2018-04-06T13:15:03.275Z,16.84
2018-04-06T13:17:31.595Z,16.33
2018-04-06T13:19:59.857Z,16.46
2018-04-06T13:22:28.171Z,16.52
2018-04-06T13:24:57.316Z,16.40
2018-04-06T13:27:25.598Z,16.34
2018-04-06T13:29:53.869Z,16.51
2018-04-06T13:32:22.241Z,16.73
2018-04-06T13:34:50.546Z,16.77
2018-04-06T13:37:18.920Z,16.63
2018-04-06T13:39:47.207Z,16.67
2018-04-06T13:42:15.486Z,16.62
2018-04-06T13:44:44.548Z,16.61
2018-04-06T13:47:12.818Z,16.81
2018-04-06T13:49:41.104Z,16.56
2018-04-06T13:52:09.469Z,16.68
2018-04-06T13:54:37.786Z,16.85
2018-04-06T13:57:06.048Z,17.18
2018-04-06T13:59:34.368Z,17.02
2018-04-06T14:02:02.671Z,16.84
2018-04-06T14:04:30.983Z,17.03
2018-04-06T14:06:59.258Z,17.10
2018-04-06T14:09:27.703Z,17.10
2018-04-06T14:11:56.002Z,17.31
2018-04-06T14:14:24.973Z,17.24
2018-04-06T14:16:53.280Z,17.23
2018-04-06T14:19:21.871Z,17.18
2018-04-06T14:21:50.185Z,17.42
2018-04-06T14:24:18.511Z,17.54
2018-04-06T14:26:46.790Z,17.52
2018-04-06T14:29:15.239Z,17.68
2018-04-06T14:31:44.220Z,17.41
2018-04-06T14:34:12.526Z,17.44
2018-04-06T14:36:40.895Z,17.32
2018-04-06T14:39:09.179Z,17.37
2018-04-06T14:41:37.489Z,17.23
2018-04-06T14:44:05.884Z,17.41
2018-04-06T14:46:34.236Z,17.62
2018-04-06T14:49:02.575Z,17.45
2018-04-06T14:51:30.985Z,17.44
2018-04-06T14:54:00.044Z,17.74
2018-04-06T14:56:28.350Z,18.00
2018-04-06T14:58:57.427Z,18.10
2018-04-06T15:01:27.236Z,17.77
2018-04-06T15:06:30.061Z,17.82
2018-04-06T15:08:59.187Z,17.64
2018-04-06T15:11:27.607Z,17.99
2018-04-06T15:13:57.423Z,18.29
2018-04-06T15:16:25.775Z,18.64
2018-04-06T15:18:54.098Z,18.95
2018-04-06T15:21:23.180Z,19.24
2018-04-06T15:23:52.375Z,19.32
2018-04-06T15:26:20.967Z,19.20
2018-04-06T15:28:50.020Z,18.48
2018-04-06T15:31:18.596Z,18.67
2018-04-06T15:33:46.948Z,18.73
2018-04-06T15:36:15.288Z,18.88
2018-04-06T15:38:43.557Z,18.51
2018-04-06T15:41:11.896Z,18.74
2018-04-06T15:43:40.411Z,19.81
2018-04-06T15:46:08.715Z,19.69
2018-04-06T15:48:37.815Z,19.96
2018-04-06T15:51:06.836Z,20.26
2018-04-06T15:53:35.662Z,20.45
2018-04-06T15:56:05.023Z,20.34
2018-04-06T15:58:34.568Z,20.33
2018-04-06T16:01:02.924Z,19.39
2018-04-06T16:03:31.245Z,19.42
2018-04-06T16:06:00.326Z,18.74
2018-04-06T16:08:29.505Z,19.28
2018-04-06T16:10:58.374Z,20.24
2018-04-06T16:13:26.657Z,20.46
2018-04-06T16:15:54.934Z,20.98
2018-04-06T16:18:23.219Z,20.66
2018-04-06T16:20:51.628Z,21.47
2018-04-06T16:23:20.675Z,20.71
2018-04-06T16:25:49.035Z,20.07
2018-04-06T16:28:17.387Z,20.10
2018-04-06T16:30:45.932Z,20.05
2018-04-06T16:33:14.274Z,19.99
2018-04-06T16:35:42.754Z,19.98
2018-04-06T16:38:11.157Z,19.46
2018-04-06T16:40:39.505Z,19.42
2018-04-06T16:43:07.803Z,19.54
2018-04-06T16:45:36.130Z,19.88
2018-04-06T16:48:04.495Z,19.14
2018-04-06T16:50:33.563Z,19.66
2018-04-06T16:53:01.876Z,19.59
2018-04-06T16:55:30.980Z,19.12
2018-04-06T16:57:59.293Z,18.55
2018-04-06T17:00:27.651Z,18.58
2018-04-06T17:02:55.958Z,18.16
2018-04-06T17:05:24.740Z,17.84
2018-04-06T17:07:53.065Z,17.51
2018-04-06T17:10:22.705Z,17.30
2018-04-06T17:12:52.655Z,17.09
2018-04-06T17:15:22.238Z,16.87
2018-04-06T17:17:50.683Z,16.83
2018-04-06T17:20:19.504Z,16.62
2018-04-06T17:22:48.806Z,16.35
2018-04-06T17:25:17.793Z,16.20
2018-04-06T17:27:46.419Z,16.08
2018-04-06T17:30:15.269Z,15.98
2018-04-06T17:32:44.257Z,15.83
2018-04-06T17:35:15.630Z,15.81
2018-04-06T17:37:44.384Z,15.71
2018-04-06T17:40:13.870Z,15.67
2018-04-06T17:42:42.781Z,15.58
2018-04-06T17:45:12.908Z,15.49
2018-04-06T17:47:41.796Z,15.41
2018-04-06T17:50:11.874Z,15.42
2018-04-06T17:52:40.838Z,15.35
2018-04-06T17:55:10.144Z,15.29
2018-04-06T17:57:39.553Z,15.19
2018-04-06T18:00:08.155Z,15.13
2018-04-06T18:02:37.034Z,15.11
2018-04-06T18:05:05.559Z,15.12
2018-04-06T18:07:35.243Z,15.05
2018-04-06T18:10:04.204Z,15.00
2018-04-06T18:12:32.799Z,14.95
2018-04-06T18:15:03.611Z,14.90
2018-04-06T18:17:32.089Z,14.92
2018-04-06T18:20:01.474Z,14.85
2018-04-06T18:22:30.370Z,14.85
2018-04-06T18:24:59.425Z,14.86
2018-04-06T18:27:28.399Z,14.80
2018-04-06T18:29:57.959Z,14.72
2018-04-06T18:32:26.883Z,14.65
2018-04-06T18:34:56.060Z,14.74
2018-04-06T18:37:25.777Z,14.68
2018-04-06T18:39:55.802Z,14.61
2018-04-06T18:42:25.214Z,14.62
2018-04-06T18:44:54.037Z,14.57
2018-04-06T18:47:22.809Z,14.57
2018-04-06T18:49:51.482Z,14.56
2018-04-06T18:52:20.903Z,14.55
2018-04-06T18:54:49.548Z,14.51
2018-04-06T18:57:19.224Z,14.46
2018-04-06T18:59:47.977Z,14.48
2018-04-06T19:02:17.442Z,14.43
2018-04-06T19:04:46.536Z,14.39
2018-04-06T19:07:15.092Z,14.38
2018-04-06T19:09:44.224Z,14.38
2018-04-06T19:12:12.578Z,14.32
2018-04-06T19:14:41.222Z,14.32
2018-04-06T19:17:10.013Z,14.25
2018-04-06T19:19:38.865Z,14.24
2018-04-06T19:22:07.637Z,14.28
2018-04-06T19:24:37.503Z,14.27
2018-04-06T19:27:10.900Z,14.23
2018-04-06T19:29:40.484Z,14.15
2018-04-06T19:32:10.300Z,14.19
2018-04-06T19:34:39.754Z,14.24
2018-04-06T19:37:09.929Z,14.16
2018-04-06T19:39:39.200Z,14.14
2018-04-06T19:42:09.267Z,14.13
2018-04-06T19:44:39.971Z,14.09
2018-04-06T19:47:09.480Z,14.03
2018-04-06T19:49:40.440Z,14.04
2018-04-06T19:52:09.312Z,13.93
2018-04-06T19:54:38.789Z,13.92
2018-04-06T19:57:08.946Z,13.89
2018-04-06T19:59:38.620Z,13.89
2018-04-06T20:02:07.524Z,13.81
2018-04-06T20:04:37.209Z,13.75
2018-04-06T20:07:06.010Z,13.90
2018-04-06T20:09:34.677Z,13.78
2018-04-06T20:12:03.958Z,13.76
2018-04-06T20:14:33.718Z,13.74
2018-04-06T20:17:02.979Z,13.72
2018-04-06T20:19:31.741Z,13.68
2018-04-06T20:22:00.420Z,13.66
2018-04-06T20:24:30.453Z,13.63
2018-04-06T20:26:59.084Z,13.57
2018-04-06T20:29:28.775Z,13.54
2018-04-06T20:31:57.358Z,13.54
2018-04-06T20:34:26.082Z,13.48
2018-04-06T20:36:55.829Z,13.51
2018-04-06T20:39:24.889Z,13.44
2018-04-06T20:41:53.878Z,13.42
2018-04-06T20:44:22.975Z,13.42
2018-04-06T20:46:51.965Z,13.39
2018-04-06T20:49:20.614Z,13.31
2018-04-06T20:51:49.596Z,13.32
2018-04-06T20:54:18.094Z,13.26
2018-04-06T20:56:46.870Z,13.26
2018-04-06T20:59:15.934Z,13.26
2018-04-06T21:01:46.055Z,13.22
2018-04-06T21:04:14.920Z,13.21
2018-04-06T21:06:43.434Z,13.13
2018-04-06T21:09:12.227Z,13.17
2018-04-06T21:11:40.809Z,13.15
2018-04-06T21:14:10.370Z,13.18
2018-04-06T21:16:39.009Z,13.09
2018-04-06T21:19:07.649Z,13.08
2018-04-06T21:21:36.893Z,13.13
2018-04-06T21:24:05.369Z,13.06
2018-04-06T21:26:33.852Z,12.94
2018-04-06T21:29:02.451Z,13.01
2018-04-06T21:31:31.336Z,13.05
2018-04-06T21:34:02.672Z,12.98
2018-04-06T21:36:31.302Z,12.91
2018-04-06T21:39:00.596Z,12.95
2018-04-06T21:41:29.283Z,12.83
2018-04-06T21:43:58.516Z,12.78
2018-04-06T21:46:26.957Z,12.78
2018-04-06T21:48:55.762Z,12.76
2018-04-06T21:51:24.412Z,12.74
2018-04-06T21:53:53.216Z,12.67
2018-04-06T21:56:22.404Z,12.68
2018-04-06T21:58:51.168Z,12.69
2018-04-06T22:01:19.739Z,12.65
2018-04-06T22:03:48.352Z,12.56
2018-04-06T22:06:17.255Z,12.53
2018-04-06T22:08:45.977Z,12.62
2018-04-06T22:11:14.834Z,12.60
2018-04-06T22:13:44.247Z,12.51
2018-04-06T22:16:13.242Z,12.44
2018-04-06T22:18:42.650Z,12.47
2018-04-06T22:21:11.326Z,12.44
2018-04-06T22:23:40.178Z,12.43
2018-04-06T22:26:08.763Z,12.29
2018-04-06T22:28:37.972Z,12.35
2018-04-06T22:31:07.008Z,12.41
2018-04-06T22:33:35.916Z,12.34
2018-04-06T22:36:04.934Z,12.34
2018-04-06T22:38:34.235Z,12.28
2018-04-06T22:41:03.671Z,12.15
2018-04-06T22:43:33.052Z,12.01
2018-04-06T22:46:02.102Z,12.00
2018-04-06T22:48:30.540Z,11.98
2018-04-06T22:50:59.775Z,11.92
2018-04-06T22:53:28.402Z,11.98
2018-04-06T22:55:56.820Z,12.03
2018-04-06T22:58:25.092Z,12.06
2018-04-06T23:00:53.352Z,11.95
2018-04-06T23:03:22.426Z,11.95
2018-04-06T23:05:50.829Z,11.94
2018-04-06T23:08:19.841Z,11.91
2018-04-06T23:10:48.137Z,11.86
2018-04-06T23:13:16.433Z,11.88
2018-04-06T23:15:44.743Z,11.88
2018-04-06T23:18:13.259Z,11.90
2018-04-06T23:20:41.616Z,11.92
2018-04-06T23:23:09.918Z,11.91
2018-04-06T23:25:38.204Z,11.84
2018-04-06T23:28:06.465Z,11.76
2018-04-06T23:30:34.753Z,11.70
2018-04-06T23:33:03.047Z,11.74
2018-04-06T23:35:31.356Z,11.66
2018-04-06T23:38:00.395Z,11.70
2018-04-06T23:40:28.693Z,11.74
2018-04-06T23:42:56.947Z,11.65
2018-04-06T23:45:25.304Z,11.68
2018-04-06T23:47:53.605Z,11.59
2018-04-06T23:50:21.853Z,11.57
2018-04-06T23:52:50.122Z,11.58
2018-04-06T23:55:18.380Z,11.54
2018-04-06T23:57:46.664Z,11.54
